createdAt,value
2019-06-27T00:01:12.960Z,21.45
2019-06-27T00:03:42.295Z,21.41
2019-06-27T00:06:11.756Z,21.46
2019-06-27T00:08:41.096Z,21.47
2019-06-27T00:11:10.440Z,21.40
2019-06-27T00:13:39.808Z,21.33
2019-06-27T00:16:09.187Z,21.25
2019-06-27T00:18:38.597Z,21.19
2019-06-27T00:21:07.980Z,21.12
2019-06-27T00:23:37.315Z,21.09
2019-06-27T00:26:06.642Z,21.08
2019-06-27T00:28:36.081Z,20.96
2019-06-27T00:31:05.390Z,21.12
2019-06-27T00:33:34.705Z,21.16
2019-06-27T00:36:04.055Z,21.29
2019-06-27T00:38:33.365Z,21.41
2019-06-27T00:41:02.703Z,21.48
2019-06-27T00:43:32.055Z,21.46
2019-06-27T00:46:01.533Z,21.47
2019-06-27T00:48:30.904Z,21.47
2019-06-27T00:51:00.221Z,21.37
2019-06-27T00:53:29.602Z,21.20
2019-06-27T00:55:58.964Z,21.18
2019-06-27T00:58:28.783Z,21.08
2019-06-27T01:00:58.121Z,20.97
2019-06-27T01:03:27.486Z,20.95
2019-06-27T01:05:56.846Z,20.86
2019-06-27T01:08:26.162Z,20.96
2019-06-27T01:10:55.484Z,20.97
2019-06-27T01:13:24.849Z,20.91
2019-06-27T01:15:54.161Z,20.82
2019-06-27T01:18:23.508Z,20.79
2019-06-27T01:20:52.932Z,20.85
2019-06-27T01:23:22.278Z,20.81
2019-06-27T01:25:51.666Z,20.70
2019-06-27T01:28:21.058Z,20.43
2019-06-27T01:30:50.390Z,20.32
2019-06-27T01:33:19.709Z,20.28
2019-06-27T01:35:49.152Z,20.21
2019-06-27T01:38:18.495Z,20.17
2019-06-27T01:40:47.819Z,20.12
2019-06-27T01:43:17.171Z,20.05
2019-06-27T01:45:55.513Z,19.78
2019-06-27T01:48:25.064Z,19.67
2019-06-27T01:50:54.392Z,19.77
2019-06-27T01:53:23.778Z,19.80
2019-06-27T01:55:53.110Z,19.70
2019-06-27T01:58:22.475Z,19.68
2019-06-27T02:00:51.854Z,19.63
2019-06-27T02:03:21.185Z,19.62
2019-06-27T02:05:50.509Z,19.63
2019-06-27T02:08:19.890Z,19.65
2019-06-27T02:10:49.291Z,19.72
2019-06-27T02:13:18.679Z,19.70
2019-06-27T02:15:48.073Z,19.75
2019-06-27T02:18:17.401Z,19.81
2019-06-27T02:20:46.740Z,19.73
2019-06-27T02:23:16.216Z,19.68
2019-06-27T02:25:45.497Z,19.67
2019-06-27T02:28:14.867Z,19.64
2019-06-27T02:30:45.018Z,19.55
2019-06-27T02:33:14.430Z,19.45
2019-06-27T02:35:43.905Z,19.53
2019-06-27T02:38:13.255Z,19.61
2019-06-27T02:40:42.586Z,19.53
2019-06-27T02:43:11.924Z,19.53
2019-06-27T02:45:41.325Z,19.57
2019-06-27T02:48:10.632Z,19.55
2019-06-27T02:50:40.017Z,19.62
2019-06-27T02:53:09.386Z,19.52
2019-06-27T02:55:38.734Z,19.47
2019-06-27T02:58:28.997Z,19.39
2019-06-27T03:00:39.160Z,19.41
2019-06-27T03:03:08.507Z,19.36
2019-06-27T03:05:37.847Z,19.35
2019-06-27T03:08:07.242Z,19.33
2019-06-27T03:10:36.689Z,19.20
2019-06-27T03:13:06.014Z,19.10
2019-06-27T03:15:35.378Z,19.06
2019-06-27T03:18:04.803Z,19.00
2019-06-27T03:20:34.158Z,18.15
2019-06-27T03:23:03.607Z,18.86
2019-06-27T03:25:32.976Z,18.81
2019-06-27T03:28:02.318Z,18.78
2019-06-27T03:30:31.657Z,18.70
2019-06-27T03:33:01.000Z,18.71
2019-06-27T03:35:30.423Z,18.61
2019-06-27T03:37:59.770Z,18.59
2019-06-27T03:40:29.139Z,18.59
2019-06-27T03:42:58.519Z,18.53
2019-06-27T03:45:27.876Z,18.55
2019-06-27T03:47:57.197Z,18.59
2019-06-27T03:50:26.547Z,18.52
2019-06-27T03:52:55.900Z,18.63
2019-06-27T03:55:25.293Z,18.67
2019-06-27T03:57:54.655Z,18.74
2019-06-27T04:00:30.535Z,18.71
2019-06-27T04:02:59.894Z,18.65
2019-06-27T04:05:29.277Z,18.59
2019-06-27T04:07:58.644Z,18.62
2019-06-27T04:10:28.015Z,18.88
2019-06-27T04:12:57.359Z,19.06
2019-06-27T04:15:26.727Z,19.17
2019-06-27T04:17:56.073Z,19.20
2019-06-27T04:20:25.419Z,19.40
2019-06-27T04:22:54.767Z,19.47
2019-06-27T04:25:24.176Z,19.53
2019-06-27T04:27:53.948Z,19.58
2019-06-27T04:30:23.335Z,19.68
2019-06-27T04:32:53.500Z,19.75
2019-06-27T04:35:22.915Z,19.90
2019-06-27T04:37:53.410Z,20.20
2019-06-27T04:40:22.817Z,20.45
2019-06-27T04:42:53.062Z,20.65
2019-06-27T04:45:24.082Z,20.64
2019-06-27T04:47:53.626Z,20.67
2019-06-27T04:50:23.049Z,20.74
2019-06-27T04:52:52.490Z,20.77
2019-06-27T04:55:21.948Z,20.85
2019-06-27T04:57:51.328Z,20.78
2019-06-27T05:00:27.738Z,20.81
2019-06-27T05:02:57.252Z,21.01
2019-06-27T05:05:26.637Z,21.08
2019-06-27T05:07:56.935Z,21.23
2019-06-27T05:10:27.228Z,21.32
2019-06-27T05:12:56.584Z,21.50
2019-06-27T05:15:26.032Z,21.69
2019-06-27T05:17:55.503Z,21.84
2019-06-27T05:20:25.308Z,22.67
2019-06-27T05:22:55.236Z,22.67
2019-06-27T05:25:25.029Z,22.69
2019-06-27T05:27:54.396Z,22.70
2019-06-27T05:30:24.585Z,22.87
2019-06-27T05:32:55.680Z,23.43
2019-06-27T05:35:26.272Z,23.64
2019-06-27T05:37:57.462Z,23.70
2019-06-27T05:40:27.027Z,24.22
2019-06-27T05:42:56.729Z,24.33
2019-06-27T05:45:26.520Z,24.23
2019-06-27T05:47:57.944Z,24.48
2019-06-27T05:50:28.332Z,24.64
2019-06-27T05:52:59.358Z,25.02
2019-06-27T05:55:29.201Z,25.16
2019-06-27T05:57:59.432Z,25.72
2019-06-27T06:00:30.556Z,26.24
2019-06-27T06:03:00.846Z,26.81
2019-06-27T06:05:32.764Z,26.81
2019-06-27T06:08:03.643Z,26.66
2019-06-27T06:10:35.661Z,26.80
2019-06-27T06:13:06.329Z,26.94
2019-06-27T06:15:37.889Z,27.07
2019-06-27T06:18:10.137Z,27.15
2019-06-27T06:20:39.923Z,27.38
2019-06-27T06:23:10.515Z,27.72
2019-06-27T06:25:41.602Z,28.12
2019-06-27T06:28:13.428Z,28.29
2019-06-27T06:30:45.043Z,28.07
2019-06-27T06:33:16.231Z,28.02
2019-06-27T06:35:47.299Z,28.34
2019-06-27T06:38:20.218Z,28.96
2019-06-27T06:40:52.263Z,28.92
2019-06-27T06:43:23.317Z,28.99
2019-06-27T06:45:54.411Z,28.98
2019-06-27T06:48:24.640Z,29.10
2019-06-27T06:50:55.869Z,28.89
2019-06-27T06:53:27.797Z,29.40
2019-06-27T06:55:57.837Z,29.29
2019-06-27T06:58:29.299Z,29.55
2019-06-27T07:01:02.450Z,30.19
2019-06-27T07:03:33.127Z,30.06
2019-06-27T07:06:04.600Z,29.16
2019-06-27T07:08:35.986Z,29.61
2019-06-27T07:11:06.584Z,29.51
2019-06-27T07:13:36.899Z,29.95
2019-06-27T07:16:09.075Z,29.78
2019-06-27T07:18:39.368Z,30.48
2019-06-27T07:21:10.010Z,30.45
2019-06-27T07:23:40.238Z,30.26
2019-06-27T07:26:11.469Z,30.10
2019-06-27T07:28:42.536Z,29.95
2019-06-27T07:31:18.227Z,30.00
2019-06-27T07:33:46.848Z,30.79
2019-06-27T07:36:17.211Z,31.54
2019-06-27T07:38:47.576Z,31.52
2019-06-27T07:41:19.991Z,31.91
2019-06-27T07:43:51.833Z,31.41
2019-06-27T07:46:25.595Z,31.07
2019-06-27T07:48:56.522Z,31.43
2019-06-27T07:51:27.926Z,31.93
2019-06-27T07:53:59.103Z,32.83
2019-06-27T07:56:30.256Z,31.92
2019-06-27T07:59:02.223Z,31.63
2019-06-27T08:01:35.721Z,32.24
2019-06-27T08:04:06.246Z,32.78
2019-06-27T08:06:37.885Z,32.93
2019-06-27T08:09:08.743Z,33.22
2019-06-27T08:11:40.655Z,33.35
2019-06-27T08:14:10.466Z,33.72
2019-06-27T08:16:41.182Z,33.77
2019-06-27T08:19:11.735Z,33.36
2019-06-27T08:21:42.857Z,33.82
2019-06-27T08:24:14.388Z,33.72
2019-06-27T08:26:44.186Z,33.92
2019-06-27T08:29:14.466Z,33.58
2019-06-27T08:31:51.250Z,33.80
2019-06-27T08:34:20.943Z,34.30
2019-06-27T08:36:52.424Z,33.28
2019-06-27T08:39:24.303Z,33.04
2019-06-27T08:41:54.876Z,33.49
2019-06-27T08:44:26.013Z,33.48
2019-06-27T08:46:56.864Z,33.56
2019-06-27T08:49:31.113Z,33.74
2019-06-27T08:52:02.536Z,34.05
2019-06-27T08:54:33.718Z,33.78
2019-06-27T08:57:04.673Z,33.71
2019-06-27T08:59:34.974Z,33.22
2019-06-27T09:02:09.121Z,32.82
2019-06-27T09:04:38.067Z,32.50
2019-06-27T09:07:09.705Z,33.04
2019-06-27T09:09:40.253Z,34.34
2019-06-27T09:12:11.291Z,34.62
2019-06-27T09:14:42.306Z,34.76
2019-06-27T09:17:14.132Z,34.24
2019-06-27T09:19:46.713Z,33.84
2019-06-27T09:22:17.859Z,33.66
2019-06-27T09:24:48.549Z,34.25
2019-06-27T09:27:19.138Z,35.04
2019-06-27T09:29:50.542Z,35.27
2019-06-27T09:32:26.038Z,34.47
2019-06-27T09:34:53.381Z,34.12
2019-06-27T09:37:25.109Z,34.22
2019-06-27T09:39:56.460Z,34.38
2019-06-27T09:42:28.602Z,34.50
2019-06-27T09:44:59.665Z,34.91
2019-06-27T09:47:29.971Z,35.22
2019-06-27T09:50:00.191Z,35.65
2019-06-27T09:52:30.592Z,35.57
2019-06-27T09:55:00.854Z,35.26
2019-06-27T09:57:31.386Z,35.18
2019-06-27T10:00:02.827Z,35.27
2019-06-27T10:02:41.484Z,35.73
2019-06-27T10:05:04.702Z,35.69
2019-06-27T10:07:35.809Z,36.16
2019-06-27T10:10:06.084Z,36.20
2019-06-27T10:12:42.939Z,36.51
2019-06-27T10:15:08.693Z,36.59
2019-06-27T10:17:38.410Z,36.32
2019-06-27T10:20:09.480Z,35.91
2019-06-27T10:22:39.896Z,35.58
2019-06-27T10:25:09.281Z,35.88
2019-06-27T10:27:41.046Z,36.23
2019-06-27T10:30:11.576Z,35.49
2019-06-27T10:32:57.809Z,35.28
2019-06-27T10:35:14.835Z,35.52
2019-06-27T10:37:45.144Z,35.10
2019-06-27T10:40:16.538Z,35.16
2019-06-27T10:42:47.276Z,36.20
2019-06-27T10:45:18.094Z,36.83
2019-06-27T10:47:47.737Z,36.34
2019-06-27T10:50:17.730Z,36.06
2019-06-27T10:52:49.611Z,35.22
2019-06-27T10:55:19.935Z,35.26
2019-06-27T10:57:49.341Z,35.21
2019-06-27T11:00:21.213Z,34.98
2019-06-27T11:02:52.788Z,35.34
2019-06-27T11:05:23.067Z,35.53
2019-06-27T11:07:54.103Z,35.40
2019-06-27T11:10:25.653Z,35.99
2019-06-27T11:12:59.331Z,36.44
2019-06-27T11:15:28.768Z,36.09
2019-06-27T11:17:58.993Z,34.60
2019-06-27T11:20:29.648Z,34.59
2019-06-27T11:22:59.730Z,34.74
2019-06-27T11:25:30.315Z,34.77
2019-06-27T11:27:59.762Z,34.32
2019-06-27T11:30:29.197Z,34.61
2019-06-27T11:32:58.689Z,35.23
2019-06-27T11:35:28.560Z,34.86
2019-06-27T11:37:58.068Z,34.95
2019-06-27T11:40:29.120Z,34.39
2019-06-27T11:42:59.628Z,34.28
2019-06-27T11:45:29.895Z,34.94
2019-06-27T11:48:00.115Z,34.85
2019-06-27T11:50:30.327Z,35.56
2019-06-27T11:53:00.537Z,35.56
2019-06-27T11:55:30.723Z,34.56
2019-06-27T11:58:00.979Z,34.83
2019-06-27T12:00:31.618Z,35.59
2019-06-27T12:03:05.696Z,35.22
2019-06-27T12:05:35.200Z,34.45
2019-06-27T12:08:10.669Z,35.09
2019-06-27T12:10:38.313Z,34.88
2019-06-27T12:13:09.035Z,33.91
2019-06-27T12:15:38.498Z,33.20
2019-06-27T12:18:09.395Z,33.46
2019-06-27T12:20:39.732Z,33.51
2019-06-27T12:23:09.974Z,33.46
2019-06-27T12:25:39.438Z,33.11
2019-06-27T12:28:09.041Z,32.86
2019-06-27T12:30:40.079Z,32.86
2019-06-27T12:33:10.370Z,33.64
2019-06-27T12:35:40.679Z,33.87
2019-06-27T12:38:12.210Z,33.83
2019-06-27T12:40:42.486Z,33.40
2019-06-27T12:43:14.603Z,33.40
2019-06-27T12:45:45.308Z,33.58
2019-06-27T12:48:16.324Z,33.38
2019-06-27T12:50:45.824Z,33.06
2019-06-27T12:53:15.379Z,33.35
2019-06-27T12:55:46.460Z,33.62
2019-06-27T12:58:16.694Z,33.64
2019-06-27T13:00:47.013Z,33.76
2019-06-27T13:03:17.238Z,34.19
2019-06-27T13:05:47.881Z,33.35
2019-06-27T13:08:17.249Z,34.90
2019-06-27T13:10:48.378Z,35.28
2019-06-27T13:13:18.624Z,35.57
2019-06-27T13:15:49.182Z,35.47
2019-06-27T13:18:19.423Z,35.39
2019-06-27T13:20:58.033Z,35.60
2019-06-27T13:23:21.690Z,35.58
2019-06-27T13:25:51.529Z,36.18
2019-06-27T13:28:21.789Z,35.99
2019-06-27T13:30:51.246Z,35.85
2019-06-27T13:33:20.969Z,35.97
2019-06-27T13:35:52.092Z,34.96
2019-06-27T13:38:22.316Z,33.67
2019-06-27T13:40:51.826Z,32.83
2019-06-27T13:43:22.887Z,32.43
2019-06-27T13:45:52.361Z,32.32
2019-06-27T13:48:22.176Z,32.38
2019-06-27T13:50:57.521Z,32.34
2019-06-27T13:53:26.374Z,32.47
2019-06-27T13:55:55.762Z,32.36
2019-06-27T13:58:26.447Z,32.11
2019-06-27T14:00:55.942Z,31.99
2019-06-27T14:03:26.973Z,31.78
2019-06-27T14:05:59.013Z,31.80
2019-06-27T14:08:29.720Z,31.80
2019-06-27T14:11:01.470Z,31.80
2019-06-27T14:13:32.676Z,32.06
2019-06-27T14:16:05.707Z,32.05
2019-06-27T14:18:34.210Z,31.85
2019-06-27T14:21:03.619Z,31.69
2019-06-27T14:23:33.925Z,31.53
2019-06-27T14:26:03.948Z,31.47
2019-06-27T14:28:34.289Z,31.52
2019-06-27T14:31:05.036Z,31.56
2019-06-27T14:33:35.328Z,31.39
2019-06-27T14:36:05.277Z,31.51
2019-06-27T14:38:34.913Z,31.75
2019-06-27T14:41:05.160Z,29.75
2019-06-27T14:43:37.827Z,31.35
2019-06-27T14:46:06.678Z,31.32
2019-06-27T14:48:37.702Z,31.46
2019-06-27T14:51:07.175Z,31.59
2019-06-27T14:53:37.012Z,31.59
2019-06-27T14:56:08.437Z,31.45
2019-06-27T14:58:38.998Z,31.65
2019-06-27T15:01:10.221Z,31.66
2019-06-27T15:03:40.630Z,31.67
2019-06-27T15:06:12.455Z,31.70
2019-06-27T15:08:42.053Z,31.62
2019-06-27T15:11:12.331Z,31.47
2019-06-27T15:13:42.849Z,31.43
2019-06-27T15:16:14.803Z,31.44
2019-06-27T15:18:45.045Z,31.41
2019-06-27T15:21:15.325Z,31.40
2019-06-27T15:23:45.211Z,31.33
2019-06-27T15:26:15.630Z,31.21
2019-06-27T15:28:46.637Z,31.17
2019-06-27T15:31:17.329Z,31.16
2019-06-27T15:33:47.596Z,31.04
2019-06-27T15:36:17.008Z,31.09
2019-06-27T15:38:47.240Z,31.33
2019-06-27T15:41:16.594Z,31.53
2019-06-27T15:43:46.019Z,31.49
2019-06-27T15:46:15.714Z,31.44
2019-06-27T15:48:45.061Z,31.38
2019-06-27T15:51:14.429Z,31.04
2019-06-27T15:53:43.789Z,30.85
2019-06-27T15:56:13.491Z,30.85
2019-06-27T15:58:43.360Z,30.83
2019-06-27T16:01:12.706Z,30.85
2019-06-27T16:03:42.401Z,30.81
2019-06-27T16:06:14.904Z,30.81
2019-06-27T16:08:43.694Z,30.83
2019-06-27T16:11:13.026Z,30.81
2019-06-27T16:13:42.354Z,30.77
2019-06-27T16:16:13.690Z,30.70
2019-06-27T16:18:47.120Z,30.77
2019-06-27T16:21:16.677Z,30.72
2019-06-27T16:23:46.170Z,30.56
2019-06-27T16:26:15.668Z,30.50
2019-06-27T16:28:45.200Z,30.54
2019-06-27T16:31:14.881Z,30.47
2019-06-27T16:33:44.460Z,30.39
2019-06-27T16:36:25.021Z,30.38
2019-06-27T16:38:45.315Z,30.36
2019-06-27T16:41:14.788Z,30.26
2019-06-27T16:43:47.537Z,30.20
2019-06-27T16:46:18.596Z,30.18
2019-06-27T16:48:48.315Z,30.10
2019-06-27T16:51:20.432Z,30.05
2019-06-27T16:53:50.990Z,30.06
2019-06-27T16:56:20.910Z,30.01
2019-06-27T16:58:50.349Z,29.93
2019-06-27T17:01:21.486Z,29.85
2019-06-27T17:03:51.735Z,29.78
2019-06-27T17:06:22.734Z,29.73
2019-06-27T17:08:52.952Z,29.76
2019-06-27T17:11:22.364Z,29.77
2019-06-27T17:13:52.603Z,29.78
2019-06-27T17:16:22.535Z,29.73
2019-06-27T17:18:53.509Z,29.70
2019-06-27T17:21:24.583Z,29.60
2019-06-27T17:23:54.903Z,29.53
2019-06-27T17:26:25.685Z,29.45
2019-06-27T17:28:55.116Z,29.41
2019-06-27T17:31:26.090Z,29.38
2019-06-27T17:33:56.306Z,29.27
2019-06-27T17:36:26.759Z,29.19
2019-06-27T17:38:56.558Z,29.12
2019-06-27T17:41:26.754Z,28.45
2019-06-27T17:43:56.637Z,29.04
2019-06-27T17:46:26.070Z,28.99
2019-06-27T17:48:56.357Z,28.93
2019-06-27T17:51:26.869Z,28.90
2019-06-27T17:53:57.591Z,28.85
2019-06-27T17:56:27.817Z,28.86
2019-06-27T17:58:57.227Z,28.73
2019-06-27T18:01:26.985Z,28.61
2019-06-27T18:03:57.218Z,28.53
2019-06-27T18:06:27.682Z,28.46
2019-06-27T18:08:58.391Z,28.42
2019-06-27T18:11:27.853Z,28.40
2019-06-27T18:13:58.071Z,28.36
2019-06-27T18:16:28.660Z,28.25
2019-06-27T18:19:00.755Z,28.19
2019-06-27T18:21:32.731Z,28.07
2019-06-27T18:24:02.212Z,27.95
2019-06-27T18:26:31.734Z,27.86
2019-06-27T18:29:01.266Z,27.80
2019-06-27T18:31:31.882Z,27.76
2019-06-27T18:34:01.787Z,27.76
2019-06-27T18:36:32.857Z,27.73
2019-06-27T18:39:02.254Z,27.68
2019-06-27T18:41:32.503Z,27.59
2019-06-27T18:44:02.777Z,27.45
2019-06-27T18:46:33.008Z,27.38
2019-06-27T18:49:03.251Z,27.41
2019-06-27T18:51:32.667Z,27.39
2019-06-27T18:54:02.997Z,27.30
2019-06-27T18:56:32.363Z,27.09
2019-06-27T18:59:02.715Z,27.26
2019-06-27T19:01:32.533Z,27.22
2019-06-27T19:04:02.346Z,27.19
2019-06-27T19:06:32.564Z,27.16
2019-06-27T19:09:02.376Z,27.13
2019-06-27T19:11:33.400Z,27.07
2019-06-27T19:14:04.076Z,27.02
2019-06-27T19:16:33.533Z,26.98
2019-06-27T19:19:07.105Z,26.95
2019-06-27T19:21:44.868Z,26.91
2019-06-27T19:24:37.921Z,26.88
2019-06-27T19:27:07.351Z,26.86
2019-06-27T19:29:36.862Z,26.82
2019-06-27T19:32:06.316Z,26.77
2019-06-27T19:34:35.741Z,26.65
2019-06-27T19:37:05.199Z,26.51
2019-06-27T19:39:34.627Z,26.40
2019-06-27T19:42:04.981Z,26.37
2019-06-27T19:44:35.227Z,26.35
2019-06-27T19:47:04.707Z,26.27
2019-06-27T19:49:34.211Z,26.22
2019-06-27T19:52:04.432Z,26.21
2019-06-27T19:54:33.839Z,26.19
2019-06-27T19:57:03.265Z,26.15
2019-06-27T19:59:32.643Z,26.11
2019-06-27T20:02:02.339Z,26.01
2019-06-27T20:04:34.071Z,25.98
2019-06-27T20:07:03.755Z,25.93
2019-06-27T20:09:33.178Z,25.92
2019-06-27T20:12:02.579Z,25.89
2019-06-27T20:14:32.045Z,25.84
2019-06-27T20:17:01.426Z,25.84
2019-06-27T20:19:30.771Z,25.81
2019-06-27T20:22:01.606Z,25.72
2019-06-27T20:24:30.951Z,25.64
2019-06-27T20:27:00.416Z,25.59
2019-06-27T20:29:30.829Z,25.55
2019-06-27T20:32:01.173Z,25.56
2019-06-27T20:34:30.588Z,25.52
2019-06-27T20:36:59.966Z,25.49
2019-06-27T20:39:30.974Z,25.45
2019-06-27T20:42:02.458Z,25.33
2019-06-27T20:44:32.010Z,25.31
2019-06-27T20:47:01.766Z,25.26
2019-06-27T20:49:32.785Z,25.16
2019-06-27T20:52:02.182Z,25.10
2019-06-27T20:54:32.252Z,25.19
2019-06-27T20:57:01.670Z,25.06
2019-06-27T20:59:31.291Z,25.06
2019-06-27T21:02:01.049Z,24.93
2019-06-27T21:04:30.416Z,24.83
2019-06-27T21:06:59.745Z,24.83
2019-06-27T21:09:29.127Z,24.52
2019-06-27T21:11:58.453Z,24.52
2019-06-27T21:14:27.794Z,24.77
2019-06-27T21:16:57.167Z,24.75
2019-06-27T21:19:26.527Z,24.54
2019-06-27T21:21:58.790Z,24.54
2019-06-27T21:24:27.073Z,24.51
2019-06-27T21:26:57.318Z,24.52
2019-06-27T21:29:26.696Z,24.41
2019-06-27T21:31:56.153Z,24.29
2019-06-27T21:34:26.007Z,24.23
2019-06-27T21:36:56.586Z,24.15
2019-06-27T21:39:26.490Z,24.11
2019-06-27T21:41:56.785Z,24.05
2019-06-27T21:44:28.222Z,23.96
2019-06-27T21:46:58.551Z,23.90
2019-06-27T21:49:29.578Z,23.84
2019-06-27T21:51:59.794Z,23.77
2019-06-27T21:54:30.015Z,23.82
2019-06-27T21:56:59.476Z,23.93
2019-06-27T21:59:30.097Z,23.83
2019-06-27T22:02:01.152Z,23.78
2019-06-27T22:04:32.664Z,23.75
2019-06-27T22:07:02.873Z,23.84
2019-06-27T22:09:32.262Z,23.92
2019-06-27T22:12:01.693Z,23.92
2019-06-27T22:14:31.966Z,23.77
2019-06-27T22:17:03.165Z,23.92
2019-06-27T22:19:33.882Z,23.85
2019-06-27T22:22:03.341Z,23.87
2019-06-27T22:24:32.895Z,23.91
2019-06-27T22:27:02.289Z,23.90
2019-06-27T22:29:31.696Z,24.02
2019-06-27T22:32:02.015Z,23.99
2019-06-27T22:34:31.729Z,24.06
2019-06-27T22:37:04.715Z,24.08
2019-06-27T22:39:53.628Z,23.91
2019-06-27T22:42:41.349Z,23.78
2019-06-27T22:45:29.428Z,23.69
2019-06-27T22:48:13.269Z,23.71
2019-06-27T22:51:06.204Z,23.74
2019-06-27T22:53:41.166Z,23.75
2019-06-27T22:56:10.978Z,23.75
2019-06-27T22:58:42.014Z,23.79
2019-06-27T23:01:11.418Z,23.75
2019-06-27T23:03:42.147Z,23.85
2019-06-27T23:06:12.077Z,23.83
2019-06-27T23:08:43.083Z,23.84
2019-06-27T23:11:12.776Z,23.88
2019-06-27T23:13:42.526Z,23.97
2019-06-27T23:16:12.228Z,24.03
2019-06-27T23:18:42.251Z,24.12
2019-06-27T23:21:12.891Z,24.03
2019-06-27T23:23:43.098Z,23.90
2019-06-27T23:26:13.341Z,23.90
2019-06-27T23:28:42.912Z,23.93
2019-06-27T23:31:13.297Z,24.01
2019-06-27T23:33:42.727Z,24.13
2019-06-27T23:36:12.506Z,23.92
2019-06-27T23:38:42.724Z,23.96
2019-06-27T23:41:12.126Z,23.92
2019-06-27T23:43:41.590Z,23.83
2019-06-27T23:46:29.916Z,23.84
2019-06-27T23:49:00.121Z,23.78
2019-06-27T23:51:29.549Z,23.62
2019-06-27T23:53:58.937Z,23.54
2019-06-27T23:56:29.014Z,23.52
2019-06-27T23:58:59.264Z,23.46
